sensor_id;sensor_type;location;lat;lon;timestamp;P1;durP1;ratioP1;P2;durP2;ratioP2
56373;SDS011;58212;47.034;7.376;2022-08-25T00:01:00;2.63;;;2.42;;
56373;SDS011;58212;47.034;7.376;2022-08-25T00:03:27;2.30;;;2.10;;
56373;SDS011;58212;47.034;7.376;2022-08-25T00:05:54;4.07;;;2.67;;
56373;SDS011;58212;47.034;7.376;2022-08-25T00:08:21;3.10;;;2.63;;
56373;SDS011;58212;47.034;7.376;2022-08-25T00:10:49;3.70;;;2.67;;
56373;SDS011;58212;47.034;7.376;2022-08-25T00:13:17;5.53;;;2.90;;
56373;SDS011;58212;47.034;7.376;2022-08-25T00:15:44;4.88;;;2.83;;
56373;SDS011;58212;47.034;7.376;2022-08-25T00:18:11;3.80;;;2.53;;
56373;SDS011;58212;47.034;7.376;2022-08-25T00:20:40;3.53;;;2.70;;
56373;SDS011;58212;47.034;7.376;2022-08-25T00:23:07;3.00;;;2.70;;
56373;SDS011;58212;47.034;7.376;2022-08-25T00:25:34;3.33;;;2.83;;
56373;SDS011;58212;47.034;7.376;2022-08-25T00:28:01;5.03;;;2.97;;
56373;SDS011;58212;47.034;7.376;2022-08-25T00:30:30;3.50;;;2.63;;
56373;SDS011;58212;47.034;7.376;2022-08-25T00:32:57;3.40;;;2.50;;
56373;SDS011;58212;47.034;7.376;2022-08-25T00:35:24;3.00;;;2.78;;
56373;SDS011;58212;47.034;7.376;2022-08-25T00:37:51;2.75;;;2.45;;
56373;SDS011;58212;47.034;7.376;2022-08-25T00:40:20;4.38;;;3.00;;
56373;SDS011;58212;47.034;7.376;2022-08-25T00:42:47;3.15;;;2.85;;
56373;SDS011;58212;47.034;7.376;2022-08-25T00:45:17;2.60;;;2.40;;
56373;SDS011;58212;47.034;7.376;2022-08-25T00:47:45;4.63;;;2.85;;
56373;SDS011;58212;47.034;7.376;2022-08-25T00:50:12;3.15;;;2.60;;
56373;SDS011;58212;47.034;7.376;2022-08-25T00:52:40;3.05;;;2.75;;
56373;SDS011;58212;47.034;7.376;2022-08-25T00:55:13;3.33;;;2.70;;
56373;SDS011;58212;47.034;7.376;2022-08-25T00:57:44;3.75;;;3.00;;
56373;SDS011;58212;47.034;7.376;2022-08-25T01:00:16;3.03;;;2.67;;
56373;SDS011;58212;47.034;7.376;2022-08-25T01:02:50;3.58;;;2.65;;
56373;SDS011;58212;47.034;7.376;2022-08-25T01:05:20;3.08;;;2.85;;
56373;SDS011;58212;47.034;7.376;2022-08-25T01:07:48;2.85;;;2.65;;
56373;SDS011;58212;47.034;7.376;2022-08-25T01:10:17;3.63;;;3.30;;
56373;SDS011;58212;47.034;7.376;2022-08-25T01:12:46;3.17;;;2.95;;
56373;SDS011;58212;47.034;7.376;2022-08-25T01:15:14;4.22;;;3.05;;
56373;SDS011;58212;47.034;7.376;2022-08-25T01:17:44;2.85;;;2.65;;
56373;SDS011;58212;47.034;7.376;2022-08-25T01:20:16;3.65;;;3.35;;
56373;SDS011;58212;47.034;7.376;2022-08-25T01:22:46;3.03;;;2.53;;
56373;SDS011;58212;47.034;7.376;2022-08-25T01:25:21;3.05;;;2.75;;
56373;SDS011;58212;47.034;7.376;2022-08-25T01:27:53;3.05;;;2.75;;
56373;SDS011;58212;47.034;7.376;2022-08-25T01:30:20;3.08;;;2.80;;
56373;SDS011;58212;47.034;7.376;2022-08-25T01:32:48;3.67;;;2.60;;
56373;SDS011;58212;47.034;7.376;2022-08-25T01:35:15;3.00;;;2.65;;
56373;SDS011;58212;47.034;7.376;2022-08-25T01:37:42;2.90;;;2.70;;
56373;SDS011;58212;47.034;7.376;2022-08-25T01:40:11;3.78;;;2.67;;
56373;SDS011;58212;47.034;7.376;2022-08-25T01:42:41;4.68;;;3.03;;
56373;SDS011;58212;47.034;7.376;2022-08-25T01:45:20;3.65;;;3.35;;
56373;SDS011;58212;47.034;7.376;2022-08-25T01:47:47;2.90;;;2.70;;
56373;SDS011;58212;47.034;7.376;2022-08-25T01:50:14;3.78;;;2.85;;
56373;SDS011;58212;47.034;7.376;2022-08-25T01:52:46;3.35;;;3.08;;
56373;SDS011;58212;47.034;7.376;2022-08-25T01:55:18;4.57;;;3.17;;
56373;SDS011;58212;47.034;7.376;2022-08-25T01:57:46;4.03;;;2.88;;
56373;SDS011;58212;47.034;7.376;2022-08-25T02:00:13;3.60;;;3.30;;
56373;SDS011;58212;47.034;7.376;2022-08-25T02:02:45;3.67;;;3.28;;
56373;SDS011;58212;47.034;7.376;2022-08-25T02:05:14;4.68;;;2.83;;
56373;SDS011;58212;47.034;7.376;2022-08-25T02:07:42;5.00;;;3.25;;
56373;SDS011;58212;47.034;7.376;2022-08-25T02:10:09;4.03;;;2.90;;
56373;SDS011;58212;47.034;7.376;2022-08-25T02:12:41;4.20;;;3.13;;
56373;SDS011;58212;47.034;7.376;2022-08-25T02:15:09;3.90;;;3.17;;
56373;SDS011;58212;47.034;7.376;2022-08-25T02:17:36;4.35;;;2.90;;
56373;SDS011;58212;47.034;7.376;2022-08-25T02:20:04;3.50;;;3.13;;
56373;SDS011;58212;47.034;7.376;2022-08-25T02:22:32;3.83;;;2.78;;
56373;SDS011;58212;47.034;7.376;2022-08-25T02:24:59;4.53;;;3.53;;
56373;SDS011;58212;47.034;7.376;2022-08-25T02:27:26;3.88;;;2.80;;
56373;SDS011;58212;47.034;7.376;2022-08-25T02:29:55;4.93;;;3.15;;
56373;SDS011;58212;47.034;7.376;2022-08-25T02:32:22;2.70;;;2.50;;
56373;SDS011;58212;47.034;7.376;2022-08-25T02:34:49;3.20;;;2.92;;
56373;SDS011;58212;47.034;7.376;2022-08-25T02:37:16;3.63;;;2.90;;
56373;SDS011;58212;47.034;7.376;2022-08-25T02:39:44;3.40;;;3.10;;
56373;SDS011;58212;47.034;7.376;2022-08-25T02:42:11;5.60;;;2.83;;
56373;SDS011;58212;47.034;7.376;2022-08-25T02:44:39;3.38;;;3.08;;
56373;SDS011;58212;47.034;7.376;2022-08-25T02:47:07;3.10;;;2.67;;
56373;SDS011;58212;47.034;7.376;2022-08-25T02:49:34;3.88;;;3.40;;
56373;SDS011;58212;47.034;7.376;2022-08-25T02:52:02;4.85;;;3.88;;
56373;SDS011;58212;47.034;7.376;2022-08-25T02:54:29;4.38;;;3.38;;
56373;SDS011;58212;47.034;7.376;2022-08-25T02:56:56;4.05;;;3.45;;
56373;SDS011;58212;47.034;7.376;2022-08-25T02:59:23;3.05;;;2.85;;
56373;SDS011;58212;47.034;7.376;2022-08-25T03:01:51;3.85;;;3.53;;
56373;SDS011;58212;47.034;7.376;2022-08-25T03:04:19;3.38;;;3.08;;
56373;SDS011;58212;47.034;7.376;2022-08-25T03:06:47;3.42;;;3.10;;
56373;SDS011;58212;47.034;7.376;2022-08-25T03:09:16;3.67;;;3.38;;
56373;SDS011;58212;47.034;7.376;2022-08-25T03:11:44;3.72;;;3.45;;
56373;SDS011;58212;47.034;7.376;2022-08-25T03:14:11;3.85;;;3.50;;
56373;SDS011;58212;47.034;7.376;2022-08-25T03:16:40;4.15;;;3.80;;
56373;SDS011;58212;47.034;7.376;2022-08-25T03:19:08;3.40;;;3.10;;
56373;SDS011;58212;47.034;7.376;2022-08-25T03:21:37;3.88;;;3.47;;
56373;SDS011;58212;47.034;7.376;2022-08-25T03:24:04;4.38;;;3.78;;
56373;SDS011;58212;47.034;7.376;2022-08-25T03:26:31;5.75;;;3.58;;
56373;SDS011;58212;47.034;7.376;2022-08-25T03:29:16;4.38;;;4.05;;
56373;SDS011;58212;47.034;7.376;2022-08-25T03:31:45;3.70;;;3.40;;
56373;SDS011;58212;47.034;7.376;2022-08-25T03:34:13;4.15;;;3.40;;
56373;SDS011;58212;47.034;7.376;2022-08-25T03:36:43;4.25;;;3.90;;
56373;SDS011;58212;47.034;7.376;2022-08-25T03:39:11;3.40;;;3.20;;
56373;SDS011;58212;47.034;7.376;2022-08-25T03:41:42;3.47;;;3.28;;
56373;SDS011;58212;47.034;7.376;2022-08-25T03:44:09;3.38;;;3.17;;
56373;SDS011;58212;47.034;7.376;2022-08-25T03:46:37;5.75;;;4.13;;
56373;SDS011;58212;47.034;7.376;2022-08-25T03:49:06;4.10;;;3.70;;
56373;SDS011;58212;47.034;7.376;2022-08-25T03:51:39;4.22;;;3.40;;
56373;SDS011;58212;47.034;7.376;2022-08-25T03:54:10;3.80;;;3.50;;
56373;SDS011;58212;47.034;7.376;2022-08-25T03:56:38;3.72;;;3.38;;
56373;SDS011;58212;47.034;7.376;2022-08-25T03:59:05;4.22;;;3.85;;
56373;SDS011;58212;47.034;7.376;2022-08-25T04:01:34;4.05;;;3.63;;
56373;SDS011;58212;47.034;7.376;2022-08-25T04:04:01;4.07;;;3.65;;
56373;SDS011;58212;47.034;7.376;2022-08-25T04:06:32;3.75;;;3.50;;
56373;SDS011;58212;47.034;7.376;2022-08-25T04:08:59;4.18;;;3.60;;
56373;SDS011;58212;47.034;7.376;2022-08-25T04:11:30;4.15;;;3.70;;
56373;SDS011;58212;47.034;7.376;2022-08-25T04:13:58;4.47;;;3.58;;
56373;SDS011;58212;47.034;7.376;2022-08-25T04:16:27;4.05;;;3.65;;
56373;SDS011;58212;47.034;7.376;2022-08-25T04:18:57;5.80;;;3.42;;
56373;SDS011;58212;47.034;7.376;2022-08-25T04:21:25;4.07;;;3.78;;
56373;SDS011;58212;47.034;7.376;2022-08-25T04:23:54;4.63;;;4.05;;
56373;SDS011;58212;47.034;7.376;2022-08-25T04:26:22;4.38;;;3.97;;
56373;SDS011;58212;47.034;7.376;2022-08-25T04:28:58;5.25;;;4.10;;
56373;SDS011;58212;47.034;7.376;2022-08-25T04:31:29;4.32;;;4.03;;
56373;SDS011;58212;47.034;7.376;2022-08-25T04:33:56;4.82;;;4.13;;
56373;SDS011;58212;47.034;7.376;2022-08-25T04:36:26;4.57;;;4.18;;
56373;SDS011;58212;47.034;7.376;2022-08-25T04:38:53;4.03;;;3.72;;
56373;SDS011;58212;47.034;7.376;2022-08-25T04:41:23;4.30;;;3.90;;
56373;SDS011;58212;47.034;7.376;2022-08-25T04:43:51;7.07;;;4.05;;
56373;SDS011;58212;47.034;7.376;2022-08-25T04:46:24;5.30;;;3.80;;
56373;SDS011;58212;47.034;7.376;2022-08-25T04:48:53;4.15;;;3.75;;
56373;SDS011;58212;47.034;7.376;2022-08-25T04:51:22;4.20;;;3.90;;
56373;SDS011;58212;47.034;7.376;2022-08-25T04:53:50;4.25;;;3.95;;
56373;SDS011;58212;47.034;7.376;2022-08-25T04:56:18;4.82;;;3.97;;
56373;SDS011;58212;47.034;7.376;2022-08-25T04:58:49;5.10;;;3.70;;
56373;SDS011;58212;47.034;7.376;2022-08-25T05:01:17;6.82;;;3.95;;
56373;SDS011;58212;47.034;7.376;2022-08-25T05:03:51;4.20;;;3.80;;
56373;SDS011;58212;47.034;7.376;2022-08-25T05:06:19;4.45;;;3.97;;
56373;SDS011;58212;47.034;7.376;2022-08-25T05:08:47;4.57;;;4.18;;
56373;SDS011;58212;47.034;7.376;2022-08-25T05:11:17;3.85;;;3.55;;
56373;SDS011;58212;47.034;7.376;2022-08-25T05:13:49;3.90;;;3.60;;
56373;SDS011;58212;47.034;7.376;2022-08-25T05:16:17;3.92;;;3.53;;
56373;SDS011;58212;47.034;7.376;2022-08-25T05:18:46;4.63;;;3.28;;
56373;SDS011;58212;47.034;7.376;2022-08-25T05:21:16;4.38;;;3.15;;
56373;SDS011;58212;47.034;7.376;2022-08-25T05:23:45;3.28;;;3.00;;
56373;SDS011;58212;47.034;7.376;2022-08-25T05:26:14;3.28;;;2.97;;
56373;SDS011;58212;47.034;7.376;2022-08-25T05:28:43;2.92;;;2.70;;
56373;SDS011;58212;47.034;7.376;2022-08-25T05:31:12;3.47;;;2.97;;
56373;SDS011;58212;47.034;7.376;2022-08-25T05:33:40;2.95;;;2.75;;
56373;SDS011;58212;47.034;7.376;2022-08-25T05:36:10;3.28;;;3.00;;
56373;SDS011;58212;47.034;7.376;2022-08-25T05:38:38;3.20;;;2.58;;
56373;SDS011;58212;47.034;7.376;2022-08-25T05:41:08;3.17;;;2.88;;
56373;SDS011;58212;47.034;7.376;2022-08-25T05:43:37;3.53;;;3.22;;
56373;SDS011;58212;47.034;7.376;2022-08-25T05:46:08;3.80;;;3.35;;
56373;SDS011;58212;47.034;7.376;2022-08-25T05:48:36;5.47;;;3.70;;
56373;SDS011;58212;47.034;7.376;2022-08-25T05:51:05;6.40;;;3.50;;
56373;SDS011;58212;47.034;7.376;2022-08-25T05:53:38;3.42;;;3.13;;
56373;SDS011;58212;47.034;7.376;2022-08-25T05:56:07;6.68;;;3.53;;
56373;SDS011;58212;47.034;7.376;2022-08-25T05:58:35;3.85;;;3.17;;
56373;SDS011;58212;47.034;7.376;2022-08-25T06:01:02;3.60;;;3.28;;
56373;SDS011;58212;47.034;7.376;2022-08-25T06:03:44;4.95;;;3.40;;
56373;SDS011;58212;47.034;7.376;2022-08-25T06:06:11;4.55;;;3.03;;
56373;SDS011;58212;47.034;7.376;2022-08-25T06:08:41;3.45;;;3.10;;
56373;SDS011;58212;47.034;7.376;2022-08-25T06:11:11;3.60;;;3.22;;
56373;SDS011;58212;47.034;7.376;2022-08-25T06:13:40;8.25;;;4.25;;
56373;SDS011;58212;47.034;7.376;2022-08-25T06:16:07;5.72;;;4.00;;
56373;SDS011;58212;47.034;7.376;2022-08-25T06:18:34;4.13;;;3.83;;
56373;SDS011;58212;47.034;7.376;2022-08-25T06:21:08;5.32;;;4.20;;
56373;SDS011;58212;47.034;7.376;2022-08-25T06:23:37;4.57;;;4.18;;
56373;SDS011;58212;47.034;7.376;2022-08-25T06:26:06;4.78;;;4.38;;
56373;SDS011;58212;47.034;7.376;2022-08-25T06:28:38;5.28;;;4.40;;
56373;SDS011;58212;47.034;7.376;2022-08-25T06:31:05;5.00;;;4.53;;
56373;SDS011;58212;47.034;7.376;2022-08-25T06:33:32;5.65;;;4.72;;
56373;SDS011;58212;47.034;7.376;2022-08-25T06:35:59;7.70;;;5.50;;
56373;SDS011;58212;47.034;7.376;2022-08-25T06:38:27;7.80;;;5.60;;
56373;SDS011;58212;47.034;7.376;2022-08-25T06:40:55;6.05;;;5.50;;
56373;SDS011;58212;47.034;7.376;2022-08-25T06:43:23;9.05;;;6.25;;
56373;SDS011;58212;47.034;7.376;2022-08-25T06:45:50;6.55;;;6.05;;
56373;SDS011;58212;47.034;7.376;2022-08-25T06:48:17;6.35;;;5.75;;
56373;SDS011;58212;47.034;7.376;2022-08-25T06:50:47;5.80;;;5.28;;
56373;SDS011;58212;47.034;7.376;2022-08-25T06:53:14;6.70;;;5.88;;
56373;SDS011;58212;47.034;7.376;2022-08-25T06:55:41;7.75;;;5.65;;
56373;SDS011;58212;47.034;7.376;2022-08-25T06:58:08;10.65;;;6.43;;
56373;SDS011;58212;47.034;7.376;2022-08-25T07:00:36;8.68;;;6.40;;
56373;SDS011;58212;47.034;7.376;2022-08-25T07:03:04;6.82;;;6.22;;
56373;SDS011;58212;47.034;7.376;2022-08-25T07:05:31;6.53;;;5.93;;
56373;SDS011;58212;47.034;7.376;2022-08-25T07:07:58;7.60;;;6.30;;
56373;SDS011;58212;47.034;7.376;2022-08-25T07:10:25;6.63;;;5.90;;
56373;SDS011;58212;47.034;7.376;2022-08-25T07:12:52;6.97;;;6.22;;
56373;SDS011;58212;47.034;7.376;2022-08-25T07:15:19;6.53;;;5.93;;
56373;SDS011;58212;47.034;7.376;2022-08-25T07:17:48;15.27;;;7.20;;
56373;SDS011;58212;47.034;7.376;2022-08-25T07:20:18;8.25;;;6.53;;
56373;SDS011;58212;47.034;7.376;2022-08-25T07:22:46;5.93;;;5.40;;
56373;SDS011;58212;47.034;7.376;2022-08-25T07:25:16;6.45;;;5.93;;
56373;SDS011;58212;47.034;7.376;2022-08-25T07:27:45;5.88;;;5.38;;
56373;SDS011;58212;47.034;7.376;2022-08-25T07:30:12;6.20;;;5.70;;
56373;SDS011;58212;47.034;7.376;2022-08-25T07:32:39;6.57;;;5.97;;
56373;SDS011;58212;47.034;7.376;2022-08-25T07:35:08;7.22;;;6.53;;
56373;SDS011;58212;47.034;7.376;2022-08-25T07:37:40;5.82;;;5.43;;
56373;SDS011;58212;47.034;7.376;2022-08-25T07:40:08;6.20;;;5.80;;
56373;SDS011;58212;47.034;7.376;2022-08-25T07:42:36;6.22;;;5.72;;
56373;SDS011;58212;47.034;7.376;2022-08-25T07:45:04;7.60;;;6.07;;
56373;SDS011;58212;47.034;7.376;2022-08-25T07:47:32;6.35;;;5.75;;
56373;SDS011;58212;47.034;7.376;2022-08-25T07:49:59;6.10;;;5.60;;
56373;SDS011;58212;47.034;7.376;2022-08-25T07:52:28;5.90;;;5.40;;
56373;SDS011;58212;47.034;7.376;2022-08-25T07:54:55;5.93;;;5.40;;
56373;SDS011;58212;47.034;7.376;2022-08-25T07:57:22;5.78;;;5.38;;
56373;SDS011;58212;47.034;7.376;2022-08-25T07:59:55;6.65;;;6.03;;
56373;SDS011;58212;47.034;7.376;2022-08-25T08:02:24;5.13;;;4.72;;
56373;SDS011;58212;47.034;7.376;2022-08-25T08:04:52;6.20;;;5.70;;
56373;SDS011;58212;47.034;7.376;2022-08-25T08:07:23;6.15;;;5.55;;
56373;SDS011;58212;47.034;7.376;2022-08-25T08:09:53;5.85;;;5.13;;
56373;SDS011;58212;47.034;7.376;2022-08-25T08:12:21;6.28;;;5.78;;
56373;SDS011;58212;47.034;7.376;2022-08-25T08:14:49;6.28;;;5.68;;
56373;SDS011;58212;47.034;7.376;2022-08-25T08:17:16;6.32;;;5.75;;
56373;SDS011;58212;47.034;7.376;2022-08-25T08:19:49;5.53;;;5.13;;
56373;SDS011;58212;47.034;7.376;2022-08-25T08:22:17;5.80;;;5.28;;
56373;SDS011;58212;47.034;7.376;2022-08-25T08:24:47;7.65;;;5.10;;
56373;SDS011;58212;47.034;7.376;2022-08-25T08:27:16;6.68;;;6.15;;
56373;SDS011;58212;47.034;7.376;2022-08-25T08:29:43;6.57;;;5.10;;
56373;SDS011;58212;47.034;7.376;2022-08-25T08:32:10;6.80;;;6.10;;
56373;SDS011;58212;47.034;7.376;2022-08-25T08:34:39;6.22;;;5.50;;
56373;SDS011;58212;47.034;7.376;2022-08-25T08:37:07;6.20;;;5.35;;
56373;SDS011;58212;47.034;7.376;2022-08-25T08:39:37;5.82;;;5.28;;
56373;SDS011;58212;47.034;7.376;2022-08-25T08:42:09;6.40;;;5.80;;
56373;SDS011;58212;47.034;7.376;2022-08-25T08:44:53;6.22;;;5.50;;
56373;SDS011;58212;47.034;7.376;2022-08-25T08:47:38;6.75;;;6.05;;
56373;SDS011;58212;47.034;7.376;2022-08-25T08:50:22;6.15;;;5.63;;
56373;SDS011;58212;47.034;7.376;2022-08-25T08:52:56;6.53;;;5.93;;
56373;SDS011;58212;47.034;7.376;2022-08-25T08:55:30;7.10;;;6.40;;
56373;SDS011;58212;47.034;7.376;2022-08-25T08:58:04;6.65;;;6.18;;
56373;SDS011;58212;47.034;7.376;2022-08-25T09:00:36;6.63;;;6.03;;
56373;SDS011;58212;47.034;7.376;2022-08-25T09:03:08;6.30;;;5.70;;
56373;SDS011;58212;47.034;7.376;2022-08-25T09:05:42;6.40;;;5.80;;
56373;SDS011;58212;47.034;7.376;2022-08-25T09:08:13;6.15;;;5.65;;
56373;SDS011;58212;47.034;7.376;2022-08-25T09:10:45;6.72;;;6.10;;
56373;SDS011;58212;47.034;7.376;2022-08-25T09:13:26;6.80;;;6.15;;
56373;SDS011;58212;47.034;7.376;2022-08-25T09:16:04;6.30;;;5.80;;
56373;SDS011;58212;47.034;7.376;2022-08-25T09:18:57;6.75;;;6.15;;
56373;SDS011;58212;47.034;7.376;2022-08-25T09:21:37;6.05;;;5.55;;
56373;SDS011;58212;47.034;7.376;2022-08-25T09:24:24;6.80;;;5.80;;
56373;SDS011;58212;47.034;7.376;2022-08-25T09:27:04;6.05;;;5.55;;
56373;SDS011;58212;47.034;7.376;2022-08-25T09:29:41;6.55;;;5.85;;
56373;SDS011;58212;47.034;7.376;2022-08-25T09:32:25;6.30;;;5.80;;
56373;SDS011;58212;47.034;7.376;2022-08-25T09:34:54;6.22;;;5.78;;
56373;SDS011;58212;47.034;7.376;2022-08-25T09:37:21;6.38;;;5.25;;
56373;SDS011;58212;47.034;7.376;2022-08-25T09:39:49;5.97;;;5.45;;
56373;SDS011;58212;47.034;7.376;2022-08-25T09:42:17;6.07;;;5.40;;
56373;SDS011;58212;47.034;7.376;2022-08-25T09:44:46;6.82;;;5.95;;
56373;SDS011;58212;47.034;7.376;2022-08-25T09:47:18;7.20;;;6.60;;
56373;SDS011;58212;47.034;7.376;2022-08-25T09:49:49;5.82;;;5.32;;
56373;SDS011;58212;47.034;7.376;2022-08-25T09:52:30;7.32;;;6.53;;
56373;SDS011;58212;47.034;7.376;2022-08-25T09:55:01;4.95;;;4.55;;
56373;SDS011;58212;47.034;7.376;2022-08-25T09:57:50;7.38;;;5.82;;
56373;SDS011;58212;47.034;7.376;2022-08-25T10:00:33;6.03;;;5.53;;
56373;SDS011;58212;47.034;7.376;2022-08-25T10:03:03;6.20;;;5.50;;
56373;SDS011;58212;47.034;7.376;2022-08-25T10:05:37;5.78;;;5.28;;
56373;SDS011;58212;47.034;7.376;2022-08-25T10:08:21;6.20;;;5.57;;
56373;SDS011;58212;47.034;7.376;2022-08-25T10:10:56;10.00;;;8.85;;
56373;SDS011;58212;47.034;7.376;2022-08-25T10:13:35;6.40;;;5.80;;
56373;SDS011;58212;47.034;7.376;2022-08-25T10:16:09;5.38;;;4.88;;
56373;SDS011;58212;47.034;7.376;2022-08-25T10:18:54;6.05;;;4.97;;
56373;SDS011;58212;47.034;7.376;2022-08-25T10:21:27;7.28;;;5.22;;
56373;SDS011;58212;47.034;7.376;2022-08-25T10:23:54;5.70;;;5.20;;
56373;SDS011;58212;47.034;7.376;2022-08-25T10:26:24;7.40;;;5.18;;
56373;SDS011;58212;47.034;7.376;2022-08-25T10:29:03;4.75;;;4.20;;
56373;SDS011;58212;47.034;7.376;2022-08-25T10:31:41;5.20;;;4.57;;
56373;SDS011;58212;47.034;7.376;2022-08-25T10:34:21;4.93;;;4.38;;
56373;SDS011;58212;47.034;7.376;2022-08-25T10:37:01;5.30;;;4.80;;
56373;SDS011;58212;47.034;7.376;2022-08-25T10:39:39;5.22;;;4.47;;
56373;SDS011;58212;47.034;7.376;2022-08-25T10:42:18;5.53;;;4.40;;
56373;SDS011;58212;47.034;7.376;2022-08-25T10:45:00;5.85;;;5.35;;
56373;SDS011;58212;47.034;7.376;2022-08-25T10:48:04;5.35;;;4.10;;
56373;SDS011;58212;47.034;7.376;2022-08-25T10:50:54;5.45;;;4.10;;
56373;SDS011;58212;47.034;7.376;2022-08-25T10:53:27;4.93;;;4.15;;
56373;SDS011;58212;47.034;7.376;2022-08-25T10:56:04;5.70;;;4.28;;
56373;SDS011;58212;47.034;7.376;2022-08-25T10:58:44;6.40;;;3.58;;
56373;SDS011;58212;47.034;7.376;2022-08-25T11:01:41;5.22;;;3.78;;
56373;SDS011;58212;47.034;7.376;2022-08-25T11:07:09;4.13;;;3.83;;
56373;SDS011;58212;47.034;7.376;2022-08-25T11:09:42;4.05;;;3.35;;
56373;SDS011;58212;47.034;7.376;2022-08-25T11:12:15;3.13;;;2.92;;
56373;SDS011;58212;47.034;7.376;2022-08-25T11:14:55;5.07;;;3.17;;
56373;SDS011;58212;47.034;7.376;2022-08-25T11:17:28;3.35;;;3.15;;
56373;SDS011;58212;47.034;7.376;2022-08-25T11:20:04;3.90;;;3.47;;
56373;SDS011;58212;47.034;7.376;2022-08-25T11:22:40;3.70;;;3.30;;
56373;SDS011;58212;47.034;7.376;2022-08-25T11:25:15;3.35;;;3.05;;
56373;SDS011;58212;47.034;7.376;2022-08-25T11:27:51;3.00;;;2.70;;
56373;SDS011;58212;47.034;7.376;2022-08-25T11:30:25;4.63;;;2.90;;
56373;SDS011;58212;47.034;7.376;2022-08-25T11:32:53;4.45;;;2.95;;
56373;SDS011;58212;47.034;7.376;2022-08-25T11:35:30;4.63;;;2.90;;
56373;SDS011;58212;47.034;7.376;2022-08-25T11:38:12;3.45;;;3.22;;
56373;SDS011;58212;47.034;7.376;2022-08-25T11:41:02;2.80;;;2.60;;
56373;SDS011;58212;47.034;7.376;2022-08-25T11:43:41;4.15;;;2.80;;
56373;SDS011;58212;47.034;7.376;2022-08-25T11:46:24;3.33;;;3.03;;
56373;SDS011;58212;47.034;7.376;2022-08-25T11:49:09;5.30;;;3.10;;
56373;SDS011;58212;47.034;7.376;2022-08-25T11:51:51;3.13;;;2.75;;
56373;SDS011;58212;47.034;7.376;2022-08-25T11:54:23;3.20;;;2.63;;
56373;SDS011;58212;47.034;7.376;2022-08-25T11:56:56;2.88;;;2.67;;
56373;SDS011;58212;47.034;7.376;2022-08-25T12:02:33;3.15;;;2.95;;
56373;SDS011;58212;47.034;7.376;2022-08-25T12:05:06;3.17;;;2.72;;
56373;SDS011;58212;47.034;7.376;2022-08-25T12:10:56;3.28;;;2.97;;
56373;SDS011;58212;47.034;7.376;2022-08-25T12:13:36;3.80;;;2.83;;
56373;SDS011;58212;47.034;7.376;2022-08-25T12:28:05;3.35;;;3.05;;
56373;SDS011;58212;47.034;7.376;2022-08-25T12:30:46;3.88;;;2.75;;
56373;SDS011;58212;47.034;7.376;2022-08-25T12:33:22;3.67;;;2.90;;
56373;SDS011;58212;47.034;7.376;2022-08-25T12:36:01;3.30;;;3.00;;
56373;SDS011;58212;47.034;7.376;2022-08-25T12:38:30;5.00;;;2.95;;
56373;SDS011;58212;47.034;7.376;2022-08-25T12:41:02;3.22;;;2.92;;
56373;SDS011;58212;47.034;7.376;2022-08-25T12:43:34;4.13;;;2.90;;
56373;SDS011;58212;47.034;7.376;2022-08-25T12:51:57;4.40;;;3.00;;
56373;SDS011;58212;47.034;7.376;2022-08-25T12:54:35;3.00;;;2.80;;
56373;SDS011;58212;47.034;7.376;2022-08-25T12:57:13;5.00;;;2.90;;
56373;SDS011;58212;47.034;7.376;2022-08-25T12:59:59;4.82;;;3.03;;
56373;SDS011;58212;47.034;7.376;2022-08-25T13:05:36;3.13;;;2.50;;
56373;SDS011;58212;47.034;7.376;2022-08-25T13:11:27;4.32;;;2.88;;
56373;SDS011;58212;47.034;7.376;2022-08-25T13:14:00;3.83;;;2.72;;
56373;SDS011;58212;47.034;7.376;2022-08-25T13:16:33;3.83;;;3.13;;
56373;SDS011;58212;47.034;7.376;2022-08-25T13:19:02;3.17;;;2.90;;
56373;SDS011;58212;47.034;7.376;2022-08-25T13:21:32;4.28;;;2.90;;
56373;SDS011;58212;47.034;7.376;2022-08-25T13:24:04;3.83;;;3.10;;
56373;SDS011;58212;47.034;7.376;2022-08-25T13:26:33;4.22;;;2.80;;
56373;SDS011;58212;47.034;7.376;2022-08-25T13:29:11;6.10;;;2.95;;
56373;SDS011;58212;47.034;7.376;2022-08-25T13:31:50;6.22;;;3.15;;
56373;SDS011;58212;47.034;7.376;2022-08-25T13:34:21;2.88;;;2.67;;
56373;SDS011;58212;47.034;7.376;2022-08-25T13:36:50;5.80;;;2.90;;
56373;SDS011;58212;47.034;7.376;2022-08-25T13:39:37;2.90;;;2.70;;
56373;SDS011;58212;47.034;7.376;2022-08-25T13:42:11;4.13;;;2.90;;
56373;SDS011;58212;47.034;7.376;2022-08-25T13:44:40;4.78;;;2.60;;
56373;SDS011;58212;47.034;7.376;2022-08-25T13:47:11;2.90;;;2.58;;
56373;SDS011;58212;47.034;7.376;2022-08-25T13:49:42;3.78;;;2.88;;
56373;SDS011;58212;47.034;7.376;2022-08-25T13:52:14;2.78;;;2.50;;
56373;SDS011;58212;47.034;7.376;2022-08-25T13:54:49;4.75;;;2.95;;
56373;SDS011;58212;47.034;7.376;2022-08-25T13:57:20;2.47;;;2.28;;
56373;SDS011;58212;47.034;7.376;2022-08-25T13:59:51;5.13;;;2.47;;
56373;SDS011;58212;47.034;7.376;2022-08-25T14:05:08;3.25;;;2.65;;
56373;SDS011;58212;47.034;7.376;2022-08-25T14:07:37;7.85;;;7.03;;
56373;SDS011;58212;47.034;7.376;2022-08-25T14:10:06;5.13;;;2.78;;
56373;SDS011;58212;47.034;7.376;2022-08-25T14:12:37;5.15;;;2.88;;
56373;SDS011;58212;47.034;7.376;2022-08-25T14:15:08;4.30;;;2.70;;
56373;SDS011;58212;47.034;7.376;2022-08-25T14:17:40;4.18;;;3.22;;
56373;SDS011;58212;47.034;7.376;2022-08-25T14:20:16;3.00;;;2.60;;
56373;SDS011;58212;47.034;7.376;2022-08-25T14:22:46;3.15;;;2.65;;
56373;SDS011;58212;47.034;7.376;2022-08-25T14:25:18;3.00;;;2.65;;
56373;SDS011;58212;47.034;7.376;2022-08-25T14:27:52;2.83;;;2.63;;
56373;SDS011;58212;47.034;7.376;2022-08-25T14:30:24;5.53;;;2.85;;
56373;SDS011;58212;47.034;7.376;2022-08-25T14:32:53;2.53;;;2.38;;
56373;SDS011;58212;47.034;7.376;2022-08-25T14:35:21;2.50;;;2.30;;
56373;SDS011;58212;47.034;7.376;2022-08-25T14:37:48;4.93;;;2.60;;
56373;SDS011;58212;47.034;7.376;2022-08-25T14:40:16;2.92;;;2.30;;
56373;SDS011;58212;47.034;7.376;2022-08-25T14:42:45;2.80;;;2.60;;
56373;SDS011;58212;47.034;7.376;2022-08-25T14:45:13;3.00;;;2.70;;
56373;SDS011;58212;47.034;7.376;2022-08-25T14:47:41;2.55;;;2.17;;
56373;SDS011;58212;47.034;7.376;2022-08-25T14:50:12;2.92;;;2.67;;
56373;SDS011;58212;47.034;7.376;2022-08-25T14:52:41;4.45;;;2.65;;
56373;SDS011;58212;47.034;7.376;2022-08-25T14:55:11;3.10;;;2.90;;
56373;SDS011;58212;47.034;7.376;2022-08-25T14:57:39;3.33;;;2.65;;
56373;SDS011;58212;47.034;7.376;2022-08-25T15:00:06;2.85;;;2.33;;
56373;SDS011;58212;47.034;7.376;2022-08-25T15:02:36;3.63;;;2.70;;
56373;SDS011;58212;47.034;7.376;2022-08-25T15:05:08;2.88;;;2.67;;
56373;SDS011;58212;47.034;7.376;2022-08-25T15:07:38;2.50;;;2.30;;
56373;SDS011;58212;47.034;7.376;2022-08-25T15:10:23;3.15;;;2.60;;
56373;SDS011;58212;47.034;7.376;2022-08-25T15:12:50;2.30;;;2.03;;
56373;SDS011;58212;47.034;7.376;2022-08-25T15:15:17;3.10;;;2.60;;
56373;SDS011;58212;47.034;7.376;2022-08-25T15:17:45;2.55;;;2.35;;
56373;SDS011;58212;47.034;7.376;2022-08-25T15:20:14;2.63;;;2.42;;
56373;SDS011;58212;47.034;7.376;2022-08-25T15:22:42;3.30;;;2.33;;
56373;SDS011;58212;47.034;7.376;2022-08-25T15:25:10;3.28;;;2.28;;
56373;SDS011;58212;47.034;7.376;2022-08-25T15:27:37;2.80;;;2.60;;
56373;SDS011;58212;47.034;7.376;2022-08-25T15:30:05;3.03;;;2.40;;
56373;SDS011;58212;47.034;7.376;2022-08-25T15:32:34;2.80;;;2.60;;
56373;SDS011;58212;47.034;7.376;2022-08-25T15:35:01;2.58;;;2.38;;
56373;SDS011;58212;47.034;7.376;2022-08-25T15:37:29;2.60;;;2.40;;
56373;SDS011;58212;47.034;7.376;2022-08-25T15:39:58;4.32;;;2.80;;
56373;SDS011;58212;47.034;7.376;2022-08-25T15:42:26;2.55;;;2.17;;
56373;SDS011;58212;47.034;7.376;2022-08-25T15:44:54;2.65;;;2.45;;
56373;SDS011;58212;47.034;7.376;2022-08-25T15:47:21;2.67;;;2.47;;